sensor_id;sensor_type;location;lat;lon;timestamp;temperature;humidity
8957;DHT22;4513;50.054;8.230;2022-09-09T00:01:39;16.30;99.90
8957;DHT22;4513;50.054;8.230;2022-09-09T00:04:16;16.40;99.90
8957;DHT22;4513;50.054;8.230;2022-09-09T00:06:55;16.30;99.90
8957;DHT22;4513;50.054;8.230;2022-09-09T00:09:26;16.30;99.90
8957;DHT22;4513;50.054;8.230;2022-09-09T00:11:58;16.30;99.90
8957;DHT22;4513;50.054;8.230;2022-09-09T00:14:34;16.30;99.90
8957;DHT22;4513;50.054;8.230;2022-09-09T00:17:07;16.10;99.90
8957;DHT22;4513;50.054;8.230;2022-09-09T00:19:44;16.10;99.90
8957;DHT22;4513;50.054;8.230;2022-09-09T00:22:17;16.10;99.90
8957;DHT22;4513;50.054;8.230;2022-09-09T00:24:46;16.00;99.90
8957;DHT22;4513;50.054;8.230;2022-09-09T00:27:19;15.90;99.90
8957;DHT22;4513;50.054;8.230;2022-09-09T00:29:53;15.90;99.90
8957;DHT22;4513;50.054;8.230;2022-09-09T00:32:22;15.90;99.90
8957;DHT22;4513;50.054;8.230;2022-09-09T00:34:55;15.90;99.90
8957;DHT22;4513;50.054;8.230;2022-09-09T00:37:24;15.90;99.90
8957;DHT22;4513;50.054;8.230;2022-09-09T00:39:53;15.80;99.90
8957;DHT22;4513;50.054;8.230;2022-09-09T00:42:24;15.90;99.90
8957;DHT22;4513;50.054;8.230;2022-09-09T00:44:56;15.80;99.90
8957;DHT22;4513;50.054;8.230;2022-09-09T00:47:39;15.80;99.90
8957;DHT22;4513;50.054;8.230;2022-09-09T00:53:05;15.60;99.90
8957;DHT22;4513;50.054;8.230;2022-09-09T00:55:44;15.50;99.90
8957;DHT22;4513;50.054;8.230;2022-09-09T00:58:13;15.50;99.90
8957;DHT22;4513;50.054;8.230;2022-09-09T01:00:43;15.50;99.90
8957;DHT22;4513;50.054;8.230;2022-09-09T01:03:22;15.50;99.90
8957;DHT22;4513;50.054;8.230;2022-09-09T01:06:01;15.60;99.90
8957;DHT22;4513;50.054;8.230;2022-09-09T01:08:42;15.60;99.90
8957;DHT22;4513;50.054;8.230;2022-09-09T01:11:17;15.50;99.90
8957;DHT22;4513;50.054;8.230;2022-09-09T01:13:47;15.50;99.90
8957;DHT22;4513;50.054;8.230;2022-09-09T01:16:18;15.50;99.90
8957;DHT22;4513;50.054;8.230;2022-09-09T01:18:48;15.50;99.90
8957;DHT22;4513;50.054;8.230;2022-09-09T01:21:22;15.50;99.90
8957;DHT22;4513;50.054;8.230;2022-09-09T01:24:08;15.40;99.90
8957;DHT22;4513;50.054;8.230;2022-09-09T01:26:43;15.40;99.90
8957;DHT22;4513;50.054;8.230;2022-09-09T01:29:13;15.30;99.90
8957;DHT22;4513;50.054;8.230;2022-09-09T01:31:51;15.20;99.90
8957;DHT22;4513;50.054;8.230;2022-09-09T01:34:18;15.10;99.90
8957;DHT22;4513;50.054;8.230;2022-09-09T01:36:49;15.10;99.90
8957;DHT22;4513;50.054;8.230;2022-09-09T01:39:19;15.10;99.90
8957;DHT22;4513;50.054;8.230;2022-09-09T01:41:48;15.20;99.90
8957;DHT22;4513;50.054;8.230;2022-09-09T01:44:14;15.00;99.90
8957;DHT22;4513;50.054;8.230;2022-09-09T01:46:43;15.00;99.90
8957;DHT22;4513;50.054;8.230;2022-09-09T01:49:10;15.00;99.90
8957;DHT22;4513;50.054;8.230;2022-09-09T01:51:39;15.00;99.90
8957;DHT22;4513;50.054;8.230;2022-09-09T01:54:07;15.00;99.90
8957;DHT22;4513;50.054;8.230;2022-09-09T01:56:40;15.00;99.90
8957;DHT22;4513;50.054;8.230;2022-09-09T01:59:21;15.10;99.90
8957;DHT22;4513;50.054;8.230;2022-09-09T02:01:59;14.90;99.90
8957;DHT22;4513;50.054;8.230;2022-09-09T02:04:37;14.90;99.90
8957;DHT22;4513;50.054;8.230;2022-09-09T02:07:10;15.00;99.90
8957;DHT22;4513;50.054;8.230;2022-09-09T02:09:42;14.90;99.90
8957;DHT22;4513;50.054;8.230;2022-09-09T02:12:14;14.90;99.90
8957;DHT22;4513;50.054;8.230;2022-09-09T02:14:48;15.00;99.90
8957;DHT22;4513;50.054;8.230;2022-09-09T02:17:22;14.90;99.90
8957;DHT22;4513;50.054;8.230;2022-09-09T02:19:54;15.00;99.90
8957;DHT22;4513;50.054;8.230;2022-09-09T02:22:24;15.00;99.90
8957;DHT22;4513;50.054;8.230;2022-09-09T02:24:53;15.00;99.90
8957;DHT22;4513;50.054;8.230;2022-09-09T02:27:23;15.00;99.90
8957;DHT22;4513;50.054;8.230;2022-09-09T02:29:52;15.00;99.90
8957;DHT22;4513;50.054;8.230;2022-09-09T02:32:23;15.00;99.90
8957;DHT22;4513;50.054;8.230;2022-09-09T02:34:58;15.00;99.90
8957;DHT22;4513;50.054;8.230;2022-09-09T02:37:30;15.10;99.90
8957;DHT22;4513;50.054;8.230;2022-09-09T02:39:58;15.10;99.90
8957;DHT22;4513;50.054;8.230;2022-09-09T02:42:25;15.20;99.90
8957;DHT22;4513;50.054;8.230;2022-09-09T02:44:53;15.10;99.90
8957;DHT22;4513;50.054;8.230;2022-09-09T02:47:26;15.10;99.90
8957;DHT22;4513;50.054;8.230;2022-09-09T02:50:02;15.00;99.90
8957;DHT22;4513;50.054;8.230;2022-09-09T02:52:34;14.90;99.90
8957;DHT22;4513;50.054;8.230;2022-09-09T02:55:08;14.90;99.90
8957;DHT22;4513;50.054;8.230;2022-09-09T02:57:39;14.90;99.90
8957;DHT22;4513;50.054;8.230;2022-09-09T03:00:10;14.80;99.90
8957;DHT22;4513;50.054;8.230;2022-09-09T03:02:38;14.90;99.90
8957;DHT22;4513;50.054;8.230;2022-09-09T03:05:06;14.90;99.90
8957;DHT22;4513;50.054;8.230;2022-09-09T03:07:33;15.00;99.90
8957;DHT22;4513;50.054;8.230;2022-09-09T03:10:00;15.00;99.90
8957;DHT22;4513;50.054;8.230;2022-09-09T03:12:27;15.20;99.90
8957;DHT22;4513;50.054;8.230;2022-09-09T03:14:53;15.30;99.90
8957;DHT22;4513;50.054;8.230;2022-09-09T03:17:22;15.30;99.90
8957;DHT22;4513;50.054;8.230;2022-09-09T03:19:48;15.40;99.90
8957;DHT22;4513;50.054;8.230;2022-09-09T03:22:17;15.40;99.90
8957;DHT22;4513;50.054;8.230;2022-09-09T03:24:44;15.30;99.90
8957;DHT22;4513;50.054;8.230;2022-09-09T03:27:12;15.40;99.90
8957;DHT22;4513;50.054;8.230;2022-09-09T03:29:39;15.40;99.90
8957;DHT22;4513;50.054;8.230;2022-09-09T03:32:06;15.40;99.90
8957;DHT22;4513;50.054;8.230;2022-09-09T03:34:36;15.30;99.90
8957;DHT22;4513;50.054;8.230;2022-09-09T03:37:04;15.20;99.90
8957;DHT22;4513;50.054;8.230;2022-09-09T03:39:31;15.20;99.90
8957;DHT22;4513;50.054;8.230;2022-09-09T03:41:58;15.20;99.90
8957;DHT22;4513;50.054;8.230;2022-09-09T03:44:24;15.20;99.90
8957;DHT22;4513;50.054;8.230;2022-09-09T03:46:51;15.30;99.90
8957;DHT22;4513;50.054;8.230;2022-09-09T03:49:18;15.30;99.90
8957;DHT22;4513;50.054;8.230;2022-09-09T03:51:47;15.40;99.90
8957;DHT22;4513;50.054;8.230;2022-09-09T03:54:13;15.40;99.90
8957;DHT22;4513;50.054;8.230;2022-09-09T03:56:40;15.40;99.90
8957;DHT22;4513;50.054;8.230;2022-09-09T03:59:07;15.30;99.90
8957;DHT22;4513;50.054;8.230;2022-09-09T04:01:34;15.30;99.90
8957;DHT22;4513;50.054;8.230;2022-09-09T04:04:01;15.20;99.90
8957;DHT22;4513;50.054;8.230;2022-09-09T04:06:28;15.30;99.90
8957;DHT22;4513;50.054;8.230;2022-09-09T04:08:57;15.40;99.90
8957;DHT22;4513;50.054;8.230;2022-09-09T04:11:23;15.50;99.90
8957;DHT22;4513;50.054;8.230;2022-09-09T04:13:50;15.60;99.90
8957;DHT22;4513;50.054;8.230;2022-09-09T04:16:17;15.50;99.90
8957;DHT22;4513;50.054;8.230;2022-09-09T04:18:44;15.50;99.90
8957;DHT22;4513;50.054;8.230;2022-09-09T04:21:11;15.50;99.90
8957;DHT22;4513;50.054;8.230;2022-09-09T04:23:39;15.40;99.90
8957;DHT22;4513;50.054;8.230;2022-09-09T04:26:07;15.40;99.90
8957;DHT22;4513;50.054;8.230;2022-09-09T04:28:36;15.30;99.90
8957;DHT22;4513;50.054;8.230;2022-09-09T04:31:07;15.30;99.90
8957;DHT22;4513;50.054;8.230;2022-09-09T04:33:35;15.20;99.90
8957;DHT22;4513;50.054;8.230;2022-09-09T04:36:02;15.20;99.90
8957;DHT22;4513;50.054;8.230;2022-09-09T04:38:29;15.20;99.90
8957;DHT22;4513;50.054;8.230;2022-09-09T04:40:56;15.30;99.90
8957;DHT22;4513;50.054;8.230;2022-09-09T04:43:24;15.20;99.90
8957;DHT22;4513;50.054;8.230;2022-09-09T04:45:52;15.20;99.90
8957;DHT22;4513;50.054;8.230;2022-09-09T04:48:20;15.40;99.90
8957;DHT22;4513;50.054;8.230;2022-09-09T04:50:54;15.40;99.90
8957;DHT22;4513;50.054;8.230;2022-09-09T04:53:21;15.40;99.90
8957;DHT22;4513;50.054;8.230;2022-09-09T04:55:48;15.40;99.90
8957;DHT22;4513;50.054;8.230;2022-09-09T04:58:15;15.40;99.90
8957;DHT22;4513;50.054;8.230;2022-09-09T05:00:43;15.40;99.90
8957;DHT22;4513;50.054;8.230;2022-09-09T05:03:10;15.40;99.90
8957;DHT22;4513;50.054;8.230;2022-09-09T05:05:38;15.30;99.90
8957;DHT22;4513;50.054;8.230;2022-09-09T05:08:06;15.20;99.90
8957;DHT22;4513;50.054;8.230;2022-09-09T05:10:35;15.20;99.90
8957;DHT22;4513;50.054;8.230;2022-09-09T05:13:02;15.30;99.90
8957;DHT22;4513;50.054;8.230;2022-09-09T05:15:30;15.30;99.90
8957;DHT22;4513;50.054;8.230;2022-09-09T05:17:59;15.30;99.90
8957;DHT22;4513;50.054;8.230;2022-09-09T05:20:26;15.20;99.90
8957;DHT22;4513;50.054;8.230;2022-09-09T05:22:53;15.10;99.90
8957;DHT22;4513;50.054;8.230;2022-09-09T05:25:20;15.10;99.90
8957;DHT22;4513;50.054;8.230;2022-09-09T05:27:47;15.10;99.90
8957;DHT22;4513;50.054;8.230;2022-09-09T05:30:15;15.20;99.90
8957;DHT22;4513;50.054;8.230;2022-09-09T05:32:42;15.30;99.90
8957;DHT22;4513;50.054;8.230;2022-09-09T05:35:10;15.30;99.90
8957;DHT22;4513;50.054;8.230;2022-09-09T05:37:37;15.40;99.90
8957;DHT22;4513;50.054;8.230;2022-09-09T05:40:04;15.50;99.90
8957;DHT22;4513;50.054;8.230;2022-09-09T05:42:31;15.50;99.90
8957;DHT22;4513;50.054;8.230;2022-09-09T05:44:58;15.40;99.90
8957;DHT22;4513;50.054;8.230;2022-09-09T05:47:25;15.50;99.90
8957;DHT22;4513;50.054;8.230;2022-09-09T05:49:54;15.40;99.90
8957;DHT22;4513;50.054;8.230;2022-09-09T05:52:22;15.40;99.90
8957;DHT22;4513;50.054;8.230;2022-09-09T05:54:51;15.40;99.90
8957;DHT22;4513;50.054;8.230;2022-09-09T05:57:17;15.40;99.90
8957;DHT22;4513;50.054;8.230;2022-09-09T05:59:44;15.70;99.90
8957;DHT22;4513;50.054;8.230;2022-09-09T06:02:11;15.80;99.90
8957;DHT22;4513;50.054;8.230;2022-09-09T06:04:39;15.90;99.90
8957;DHT22;4513;50.054;8.230;2022-09-09T06:07:05;15.90;99.90
8957;DHT22;4513;50.054;8.230;2022-09-09T06:09:33;15.80;99.90
8957;DHT22;4513;50.054;8.230;2022-09-09T06:12:00;15.90;99.90
8957;DHT22;4513;50.054;8.230;2022-09-09T06:14:27;15.90;99.90
8957;DHT22;4513;50.054;8.230;2022-09-09T06:16:54;15.90;99.90
8957;DHT22;4513;50.054;8.230;2022-09-09T06:19:22;15.90;99.90
8957;DHT22;4513;50.054;8.230;2022-09-09T06:21:49;16.10;99.90
8957;DHT22;4513;50.054;8.230;2022-09-09T06:24:16;16.10;99.90
8957;DHT22;4513;50.054;8.230;2022-09-09T06:26:46;16.10;99.90
8957;DHT22;4513;50.054;8.230;2022-09-09T06:29:13;16.30;99.90
8957;DHT22;4513;50.054;8.230;2022-09-09T06:31:39;16.30;99.90
8957;DHT22;4513;50.054;8.230;2022-09-09T06:34:07;16.30;99.90
8957;DHT22;4513;50.054;8.230;2022-09-09T06:36:36;16.40;99.90
8957;DHT22;4513;50.054;8.230;2022-09-09T06:39:03;16.60;99.90
8957;DHT22;4513;50.054;8.230;2022-09-09T06:41:31;16.60;99.90
8957;DHT22;4513;50.054;8.230;2022-09-09T06:44:00;16.50;99.90
8957;DHT22;4513;50.054;8.230;2022-09-09T06:46:29;16.60;99.90
8957;DHT22;4513;50.054;8.230;2022-09-09T06:48:59;16.60;99.90
8957;DHT22;4513;50.054;8.230;2022-09-09T06:51:26;16.60;99.90
8957;DHT22;4513;50.054;8.230;2022-09-09T06:53:55;16.60;99.90
8957;DHT22;4513;50.054;8.230;2022-09-09T06:56:24;16.60;99.90
8957;DHT22;4513;50.054;8.230;2022-09-09T06:58:54;16.60;99.90
8957;DHT22;4513;50.054;8.230;2022-09-09T07:01:25;16.70;99.90
8957;DHT22;4513;50.054;8.230;2022-09-09T07:03:54;16.70;99.90
8957;DHT22;4513;50.054;8.230;2022-09-09T07:06:25;16.80;99.90
8957;DHT22;4513;50.054;8.230;2022-09-09T07:08:53;16.70;99.90
8957;DHT22;4513;50.054;8.230;2022-09-09T07:11:23;16.80;99.90
8957;DHT22;4513;50.054;8.230;2022-09-09T07:13:51;16.80;99.90
8957;DHT22;4513;50.054;8.230;2022-09-09T07:16:19;17.10;99.90
8957;DHT22;4513;50.054;8.230;2022-09-09T07:18:49;17.20;99.90
8957;DHT22;4513;50.054;8.230;2022-09-09T07:21:17;17.30;99.90
8957;DHT22;4513;50.054;8.230;2022-09-09T07:23:44;17.40;99.90
8957;DHT22;4513;50.054;8.230;2022-09-09T07:26:14;17.40;99.90
8957;DHT22;4513;50.054;8.230;2022-09-09T07:28:41;17.70;99.90
8957;DHT22;4513;50.054;8.230;2022-09-09T07:31:13;18.00;99.90
8957;DHT22;4513;50.054;8.230;2022-09-09T07:33:42;18.50;99.90
8957;DHT22;4513;50.054;8.230;2022-09-09T07:36:14;19.20;99.90
8957;DHT22;4513;50.054;8.230;2022-09-09T07:38:42;19.10;99.90
8957;DHT22;4513;50.054;8.230;2022-09-09T07:41:13;18.90;99.90
8957;DHT22;4513;50.054;8.230;2022-09-09T07:43:42;18.60;99.90
8957;DHT22;4513;50.054;8.230;2022-09-09T07:46:10;18.50;99.90
8957;DHT22;4513;50.054;8.230;2022-09-09T07:48:38;18.50;99.90
8957;DHT22;4513;50.054;8.230;2022-09-09T07:51:12;18.40;99.90
8957;DHT22;4513;50.054;8.230;2022-09-09T07:53:42;18.40;99.90
8957;DHT22;4513;50.054;8.230;2022-09-09T07:56:11;18.40;99.90
8957;DHT22;4513;50.054;8.230;2022-09-09T07:58:39;18.30;99.90
8957;DHT22;4513;50.054;8.230;2022-09-09T08:01:08;18.20;99.90
8957;DHT22;4513;50.054;8.230;2022-09-09T08:03:35;18.10;99.90
8957;DHT22;4513;50.054;8.230;2022-09-09T08:06:04;18.20;99.90
8957;DHT22;4513;50.054;8.230;2022-09-09T08:08:33;18.20;99.90
8957;DHT22;4513;50.054;8.230;2022-09-09T08:11:05;18.20;99.90
8957;DHT22;4513;50.054;8.230;2022-09-09T08:13:33;18.40;99.90
8957;DHT22;4513;50.054;8.230;2022-09-09T08:16:07;18.30;99.90
8957;DHT22;4513;50.054;8.230;2022-09-09T08:18:34;18.40;99.90
8957;DHT22;4513;50.054;8.230;2022-09-09T08:21:09;18.40;99.90
8957;DHT22;4513;50.054;8.230;2022-09-09T08:23:40;18.30;99.90
8957;DHT22;4513;50.054;8.230;2022-09-09T08:26:10;18.30;99.90
8957;DHT22;4513;50.054;8.230;2022-09-09T08:28:38;18.30;99.90
8957;DHT22;4513;50.054;8.230;2022-09-09T08:31:06;18.20;99.90
8957;DHT22;4513;50.054;8.230;2022-09-09T08:33:36;18.10;99.90
8957;DHT22;4513;50.054;8.230;2022-09-09T08:36:04;18.10;99.90
8957;DHT22;4513;50.054;8.230;2022-09-09T08:38:32;18.20;99.90
8957;DHT22;4513;50.054;8.230;2022-09-09T08:41:07;18.30;99.90
8957;DHT22;4513;50.054;8.230;2022-09-09T08:43:37;18.40;99.90
8957;DHT22;4513;50.054;8.230;2022-09-09T08:46:11;18.60;99.90
8957;DHT22;4513;50.054;8.230;2022-09-09T08:48:48;18.60;99.90
8957;DHT22;4513;50.054;8.230;2022-09-09T08:51:18;18.60;99.90
8957;DHT22;4513;50.054;8.230;2022-09-09T08:53:48;18.50;99.90
8957;DHT22;4513;50.054;8.230;2022-09-09T08:56:21;18.50;99.90
8957;DHT22;4513;50.054;8.230;2022-09-09T08:58:50;18.50;99.90
8957;DHT22;4513;50.054;8.230;2022-09-09T09:01:30;18.60;99.90
8957;DHT22;4513;50.054;8.230;2022-09-09T09:04:10;18.60;99.90
8957;DHT22;4513;50.054;8.230;2022-09-09T09:06:49;18.70;99.90
8957;DHT22;4513;50.054;8.230;2022-09-09T09:09:23;18.80;99.90
8957;DHT22;4513;50.054;8.230;2022-09-09T09:11:55;19.00;99.90
8957;DHT22;4513;50.054;8.230;2022-09-09T09:14:27;19.30;99.90
8957;DHT22;4513;50.054;8.230;2022-09-09T09:16:58;19.70;99.90
8957;DHT22;4513;50.054;8.230;2022-09-09T09:19:27;20.60;99.90
8957;DHT22;4513;50.054;8.230;2022-09-09T09:22:00;21.30;99.90
8957;DHT22;4513;50.054;8.230;2022-09-09T09:24:36;21.90;99.90
8957;DHT22;4513;50.054;8.230;2022-09-09T09:27:13;22.00;99.90
8957;DHT22;4513;50.054;8.230;2022-09-09T09:29:41;21.50;99.90
8957;DHT22;4513;50.054;8.230;2022-09-09T09:32:13;20.90;99.90
8957;DHT22;4513;50.054;8.230;2022-09-09T09:34:40;20.40;99.90
8957;DHT22;4513;50.054;8.230;2022-09-09T09:37:15;19.90;99.90
8957;DHT22;4513;50.054;8.230;2022-09-09T09:39:45;19.70;99.90
8957;DHT22;4513;50.054;8.230;2022-09-09T09:42:16;19.80;99.90
8957;DHT22;4513;50.054;8.230;2022-09-09T09:44:44;20.00;99.90
8957;DHT22;4513;50.054;8.230;2022-09-09T09:47:12;20.10;99.90
8957;DHT22;4513;50.054;8.230;2022-09-09T09:49:51;20.10;99.90
8957;DHT22;4513;50.054;8.230;2022-09-09T09:52:21;19.90;99.90
8957;DHT22;4513;50.054;8.230;2022-09-09T09:54:49;19.70;99.90
8957;DHT22;4513;50.054;8.230;2022-09-09T09:57:23;19.50;99.90
8957;DHT22;4513;50.054;8.230;2022-09-09T10:00:00;19.70;99.90
8957;DHT22;4513;50.054;8.230;2022-09-09T10:02:37;20.00;99.90
8957;DHT22;4513;50.054;8.230;2022-09-09T10:05:13;20.50;99.90
8957;DHT22;4513;50.054;8.230;2022-09-09T10:07:41;20.70;99.90
8957;DHT22;4513;50.054;8.230;2022-09-09T10:10:13;20.90;99.90
8957;DHT22;4513;50.054;8.230;2022-09-09T10:12:52;20.90;99.90
8957;DHT22;4513;50.054;8.230;2022-09-09T10:15:31;20.60;99.90
8957;DHT22;4513;50.054;8.230;2022-09-09T10:18:08;20.60;99.90
8957;DHT22;4513;50.054;8.230;2022-09-09T10:20:44;21.00;99.90
8957;DHT22;4513;50.054;8.230;2022-09-09T10:23:25;20.80;99.90
8957;DHT22;4513;50.054;8.230;2022-09-09T10:26:10;21.20;99.90
8957;DHT22;4513;50.054;8.230;2022-09-09T10:28:55;21.50;99.90
8957;DHT22;4513;50.054;8.230;2022-09-09T10:31:32;21.90;99.90
8957;DHT22;4513;50.054;8.230;2022-09-09T10:34:16;22.00;99.90
8957;DHT22;4513;50.054;8.230;2022-09-09T10:36:48;21.90;99.90
8957;DHT22;4513;50.054;8.230;2022-09-09T10:39:27;22.30;99.90
8957;DHT22;4513;50.054;8.230;2022-09-09T10:42:04;22.30;99.90
8957;DHT22;4513;50.054;8.230;2022-09-09T10:44:49;22.30;99.90
8957;DHT22;4513;50.054;8.230;2022-09-09T10:47:30;22.60;99.90
8957;DHT22;4513;50.054;8.230;2022-09-09T10:50:12;22.70;99.90
8957;DHT22;4513;50.054;8.230;2022-09-09T10:52:45;22.80;99.90
8957;DHT22;4513;50.054;8.230;2022-09-09T10:55:18;22.60;99.10
8957;DHT22;4513;50.054;8.230;2022-09-09T10:57:47;22.60;98.60
8957;DHT22;4513;50.054;8.230;2022-09-09T11:00:18;22.50;99.10
8957;DHT22;4513;50.054;8.230;2022-09-09T11:02:49;22.40;98.80
8957;DHT22;4513;50.054;8.230;2022-09-09T11:05:20;22.50;99.10
8957;DHT22;4513;50.054;8.230;2022-09-09T11:07:51;22.60;99.10
8957;DHT22;4513;50.054;8.230;2022-09-09T11:10:29;22.90;99.60
8957;DHT22;4513;50.054;8.230;2022-09-09T11:13:03;23.00;98.70
8957;DHT22;4513;50.054;8.230;2022-09-09T11:15:39;23.00;98.10
8957;DHT22;4513;50.054;8.230;2022-09-09T11:18:13;23.10;97.90
8957;DHT22;4513;50.054;8.230;2022-09-09T11:20:45;22.70;97.40
8957;DHT22;4513;50.054;8.230;2022-09-09T11:23:17;22.50;97.20
8957;DHT22;4513;50.054;8.230;2022-09-09T11:25:49;22.30;98.20
8957;DHT22;4513;50.054;8.230;2022-09-09T11:28:35;22.10;98.40
8957;DHT22;4513;50.054;8.230;2022-09-09T11:31:19;21.90;98.60
8957;DHT22;4513;50.054;8.230;2022-09-09T11:34:02;21.80;99.20
8957;DHT22;4513;50.054;8.230;2022-09-09T11:37:02;21.90;99.90
8957;DHT22;4513;50.054;8.230;2022-09-09T11:39:50;22.30;98.90
8957;DHT22;4513;50.054;8.230;2022-09-09T11:42:22;22.40;99.70
8957;DHT22;4513;50.054;8.230;2022-09-09T11:44:50;22.10;98.40
8957;DHT22;4513;50.054;8.230;2022-09-09T11:47:22;21.80;98.50
8957;DHT22;4513;50.054;8.230;2022-09-09T11:49:52;21.70;99.00
8957;DHT22;4513;50.054;8.230;2022-09-09T11:52:23;21.50;99.10
8957;DHT22;4513;50.054;8.230;2022-09-09T11:54:54;21.50;99.40
8957;DHT22;4513;50.054;8.230;2022-09-09T11:57:35;21.50;99.90
8957;DHT22;4513;50.054;8.230;2022-09-09T12:00:03;21.30;99.50
8957;DHT22;4513;50.054;8.230;2022-09-09T12:02:32;21.10;99.70
8957;DHT22;4513;50.054;8.230;2022-09-09T12:05:03;21.00;99.90
8957;DHT22;4513;50.054;8.230;2022-09-09T12:07:36;21.00;99.90
8957;DHT22;4513;50.054;8.230;2022-09-09T12:10:20;21.00;99.90
8957;DHT22;4513;50.054;8.230;2022-09-09T12:12:49;20.80;99.90
8957;DHT22;4513;50.054;8.230;2022-09-09T12:15:25;20.70;99.90
8957;DHT22;4513;50.054;8.230;2022-09-09T12:17:57;20.70;99.90
8957;DHT22;4513;50.054;8.230;2022-09-09T12:20:31;20.70;99.90
8957;DHT22;4513;50.054;8.230;2022-09-09T12:23:15;20.50;99.90
8957;DHT22;4513;50.054;8.230;2022-09-09T12:25:58;20.60;99.90
8957;DHT22;4513;50.054;8.230;2022-09-09T12:28:40;20.60;99.90
8957;DHT22;4513;50.054;8.230;2022-09-09T12:31:12;20.60;99.90
8957;DHT22;4513;50.054;8.230;2022-09-09T12:33:45;20.50;99.90
8957;DHT22;4513;50.054;8.230;2022-09-09T12:36:15;20.40;99.90
8957;DHT22;4513;50.054;8.230;2022-09-09T12:38:43;20.70;99.90
8957;DHT22;4513;50.054;8.230;2022-09-09T12:41:19;20.90;99.90
8957;DHT22;4513;50.054;8.230;2022-09-09T12:43:46;21.30;99.90
8957;DHT22;4513;50.054;8.230;2022-09-09T12:46:23;21.70;99.90
8957;DHT22;4513;50.054;8.230;2022-09-09T12:48:54;21.50;99.90
8957;DHT22;4513;50.054;8.230;2022-09-09T12:51:25;21.80;99.90
8957;DHT22;4513;50.054;8.230;2022-09-09T12:53:52;21.90;99.90
8957;DHT22;4513;50.054;8.230;2022-09-09T12:56:21;21.80;99.90
8957;DHT22;4513;50.054;8.230;2022-09-09T12:58:51;21.80;99.90
8957;DHT22;4513;50.054;8.230;2022-09-09T13:01:23;22.10;99.90
8957;DHT22;4513;50.054;8.230;2022-09-09T13:03:50;22.20;99.90
8957;DHT22;4513;50.054;8.230;2022-09-09T13:06:21;22.40;99.90
8957;DHT22;4513;50.054;8.230;2022-09-09T13:08:52;22.60;99.90
8957;DHT22;4513;50.054;8.230;2022-09-09T13:11:22;22.60;99.90
8957;DHT22;4513;50.054;8.230;2022-09-09T13:13:51;22.70;98.50
8957;DHT22;4513;50.054;8.230;2022-09-09T13:16:25;22.60;98.50
8957;DHT22;4513;50.054;8.230;2022-09-09T13:19:01;22.50;99.00
8957;DHT22;4513;50.054;8.230;2022-09-09T13:21:34;22.60;99.50
8957;DHT22;4513;50.054;8.230;2022-09-09T13:24:04;22.80;98.70
8957;DHT22;4513;50.054;8.230;2022-09-09T13:26:33;22.60;98.20
8957;DHT22;4513;50.054;8.230;2022-09-09T13:29:16;22.60;99.00
8957;DHT22;4513;50.054;8.230;2022-09-09T13:31:47;22.50;99.40
8957;DHT22;4513;50.054;8.230;2022-09-09T13:34:26;22.40;99.10
8957;DHT22;4513;50.054;8.230;2022-09-09T13:36:59;22.20;99.10
8957;DHT22;4513;50.054;8.230;2022-09-09T13:39:27;22.00;99.30
8957;DHT22;4513;50.054;8.230;2022-09-09T13:41:55;21.70;99.60
8957;DHT22;4513;50.054;8.230;2022-09-09T13:44:25;21.40;99.90
8957;DHT22;4513;50.054;8.230;2022-09-09T13:47:03;21.00;99.90
8957;DHT22;4513;50.054;8.230;2022-09-09T13:49:31;20.80;99.90
8957;DHT22;4513;50.054;8.230;2022-09-09T13:52:10;20.60;99.90
8957;DHT22;4513;50.054;8.230;2022-09-09T13:54:39;20.50;99.90
8957;DHT22;4513;50.054;8.230;2022-09-09T13:57:15;20.50;99.90
8957;DHT22;4513;50.054;8.230;2022-09-09T13:59:42;20.50;99.90
8957;DHT22;4513;50.054;8.230;2022-09-09T14:02:09;20.50;99.90
8957;DHT22;4513;50.054;8.230;2022-09-09T14:04:36;20.40;99.90
8957;DHT22;4513;50.054;8.230;2022-09-09T14:07:03;20.30;99.90
8957;DHT22;4513;50.054;8.230;2022-09-09T14:09:32;20.10;99.90
8957;DHT22;4513;50.054;8.230;2022-09-09T14:11:58;20.00;99.90
8957;DHT22;4513;50.054;8.230;2022-09-09T14:14:25;19.80;99.90
8957;DHT22;4513;50.054;8.230;2022-09-09T14:16:52;19.30;99.90
8957;DHT22;4513;50.054;8.230;2022-09-09T14:19:19;19.00;99.90
8957;DHT22;4513;50.054;8.230;2022-09-09T14:21:46;18.80;99.90
8957;DHT22;4513;50.054;8.230;2022-09-09T14:24:12;18.70;99.90
8957;DHT22;4513;50.054;8.230;2022-09-09T14:26:40;18.70;99.90
8957;DHT22;4513;50.054;8.230;2022-09-09T14:29:07;18.90;99.90
8957;DHT22;4513;50.054;8.230;2022-09-09T14:31:34;19.00;99.90
8957;DHT22;4513;50.054;8.230;2022-09-09T14:34:01;19.20;99.90
8957;DHT22;4513;50.054;8.230;2022-09-09T14:36:27;19.50;99.90
8957;DHT22;4513;50.054;8.230;2022-09-09T14:38:55;19.60;99.90
8957;DHT22;4513;50.054;8.230;2022-09-09T14:41:23;19.70;99.90
8957;DHT22;4513;50.054;8.230;2022-09-09T14:43:51;19.60;99.90
8957;DHT22;4513;50.054;8.230;2022-09-09T14:46:20;19.60;99.90
8957;DHT22;4513;50.054;8.230;2022-09-09T14:48:47;19.50;99.90
8957;DHT22;4513;50.054;8.230;2022-09-09T14:51:18;19.50;99.90
8957;DHT22;4513;50.054;8.230;2022-09-09T14:53:47;19.40;99.90
8957;DHT22;4513;50.054;8.230;2022-09-09T14:56:18;19.50;99.90
8957;DHT22;4513;50.054;8.230;2022-09-09T14:58:45;19.70;99.90
8957;DHT22;4513;50.054;8.230;2022-09-09T15:01:17;19.90;99.90
8957;DHT22;4513;50.054;8.230;2022-09-09T15:03:50;20.00;99.90
8957;DHT22;4513;50.054;8.230;2022-09-09T15:06:18;20.00;99.90
8957;DHT22;4513;50.054;8.230;2022-09-09T15:08:46;20.10;99.90
8957;DHT22;4513;50.054;8.230;2022-09-09T15:11:14;20.00;99.90
8957;DHT22;4513;50.054;8.230;2022-09-09T15:13:42;20.10;99.90
8957;DHT22;4513;50.054;8.230;2022-09-09T15:16:11;20.20;99.90
8957;DHT22;4513;50.054;8.230;2022-09-09T15:18:40;20.20;99.90
8957;DHT22;4513;50.054;8.230;2022-09-09T15:21:08;20.30;99.90
8957;DHT22;4513;50.054;8.230;2022-09-09T15:23:36;20.30;99.90
8957;DHT22;4513;50.054;8.230;2022-09-09T15:26:03;20.30;99.90
8957;DHT22;4513;50.054;8.230;2022-09-09T15:28:32;20.20;99.90
8957;DHT22;4513;50.054;8.230;2022-09-09T15:31:06;20.10;99.90
8957;DHT22;4513;50.054;8.230;2022-09-09T15:33:33;20.00;99.90
8957;DHT22;4513;50.054;8.230;2022-09-09T15:36:14;19.90;99.90
8957;DHT22;4513;50.054;8.230;2022-09-09T15:38:41;19.90;99.90
8957;DHT22;4513;50.054;8.230;2022-09-09T15:41:09;19.90;99.90
8957;DHT22;4513;50.054;8.230;2022-09-09T15:43:36;19.90;99.90
8957;DHT22;4513;50.054;8.230;2022-09-09T15:46:22;19.80;99.90
8957;DHT22;4513;50.054;8.230;2022-09-09T15:48:51;19.70;99.90
8957;DHT22;4513;50.054;8.230;2022-09-09T15:51:20;19.70;99.90
8957;DHT22;4513;50.054;8.230;2022-09-09T15:53:47;19.50;99.90
8957;DHT22;4513;50.054;8.230;2022-09-09T15:56:14;19.60;99.90
8957;DHT22;4513;50.054;8.230;2022-09-09T15:58:40;19.50;99.90
8957;DHT22;4513;50.054;8.230;2022-09-09T16:01:10;19.50;99.90
8957;DHT22;4513;50.054;8.230;2022-09-09T16:03:39;19.40;99.90
8957;DHT22;4513;50.054;8.230;2022-09-09T16:06:08;19.40;99.90
8957;DHT22;4513;50.054;8.230;2022-09-09T16:08:39;19.40;99.90
8957;DHT22;4513;50.054;8.230;2022-09-09T16:11:07;19.50;99.90
8957;DHT22;4513;50.054;8.230;2022-09-09T16:13:35;19.50;99.90
8957;DHT22;4513;50.054;8.230;2022-09-09T16:16:02;19.50;99.90
8957;DHT22;4513;50.054;8.230;2022-09-09T16:18:37;19.50;99.90
8957;DHT22;4513;50.054;8.230;2022-09-09T16:21:05;19.50;99.90
8957;DHT22;4513;50.054;8.230;2022-09-09T16:23:33;19.40;99.90
8957;DHT22;4513;50.054;8.230;2022-09-09T16:26:02;19.40;99.90
8957;DHT22;4513;50.054;8.230;2022-09-09T16:28:29;19.50;99.90